createdAt,value
2019-06-15T00:00:25.059Z,986.65
2019-06-15T00:01:25.046Z,986.65
2019-06-15T00:02:25.034Z,986.64
2019-06-15T00:03:25.024Z,986.61
2019-06-15T00:04:25.009Z,986.49
2019-06-15T00:05:25.001Z,986.46
2019-06-15T00:06:24.976Z,986.37
2019-06-15T00:07:24.960Z,986.36
2019-06-15T00:08:24.950Z,986.29
2019-06-15T00:09:24.938Z,986.29
2019-06-15T00:10:24.928Z,986.32
2019-06-15T00:11:24.914Z,986.35
2019-06-15T00:12:24.900Z,986.33
2019-06-15T00:13:24.885Z,986.32
2019-06-15T00:14:24.871Z,986.31
2019-06-15T00:15:24.859Z,986.31
2019-06-15T00:16:24.857Z,986.32
2019-06-15T00:17:24.842Z,986.28
2019-06-15T00:18:24.822Z,986.30
2019-06-15T00:19:24.805Z,986.33
2019-06-15T00:20:24.791Z,986.33
2019-06-15T00:21:24.785Z,986.32
2019-06-15T00:22:24.765Z,986.35
2019-06-15T00:23:24.755Z,986.39
2019-06-15T00:24:35.068Z,986.38
2019-06-15T00:25:24.724Z,986.45
2019-06-15T00:26:24.713Z,986.42
2019-06-15T00:27:24.699Z,986.43
2019-06-15T00:28:24.693Z,986.43
2019-06-15T00:29:24.669Z,986.44
2019-06-15T00:30:24.672Z,986.39
2019-06-15T00:31:24.654Z,986.38
2019-06-15T00:32:24.635Z,986.32
2019-06-15T00:33:24.619Z,986.29
2019-06-15T00:34:24.600Z,986.24
2019-06-15T00:35:24.591Z,986.19
2019-06-15T00:36:24.583Z,986.22
2019-06-15T00:37:24.566Z,986.21
2019-06-15T00:38:24.551Z,986.23
2019-06-15T00:39:24.538Z,986.23
2019-06-15T00:40:24.521Z,986.19
2019-06-15T00:41:24.514Z,986.21
2019-06-15T00:42:24.492Z,986.20
2019-06-15T00:43:24.491Z,986.18
2019-06-15T00:44:24.471Z,986.15
2019-06-15T00:45:24.457Z,986.13
2019-06-15T00:46:24.441Z,986.09
2019-06-15T00:47:24.434Z,986.06
2019-06-15T00:48:24.417Z,986.06
2019-06-15T00:49:24.411Z,986.05
2019-06-15T00:50:24.444Z,986.01
2019-06-15T00:51:24.377Z,986.03
2019-06-15T00:52:24.374Z,985.97
2019-06-15T00:53:24.349Z,985.99
2019-06-15T00:54:24.335Z,985.95
2019-06-15T00:55:24.323Z,985.95
2019-06-15T00:56:24.311Z,985.94
2019-06-15T00:57:24.297Z,985.90
2019-06-15T00:58:24.283Z,985.92
2019-06-15T00:59:24.281Z,985.89
2019-06-15T01:00:24.273Z,985.87
2019-06-15T01:01:24.248Z,985.85
2019-06-15T01:02:24.230Z,985.85
2019-06-15T01:03:24.229Z,985.85
2019-06-15T01:04:24.206Z,985.80
2019-06-15T01:05:24.191Z,985.80
2019-06-15T01:06:24.175Z,985.78
2019-06-15T01:07:24.166Z,985.78
2019-06-15T01:08:24.145Z,985.73
2019-06-15T01:09:24.143Z,985.74
2019-06-15T01:10:24.136Z,985.65
2019-06-15T01:11:24.104Z,985.64
2019-06-15T01:12:24.096Z,985.60
2019-06-15T01:13:24.101Z,985.58
2019-06-15T01:14:24.066Z,985.60
2019-06-15T01:15:24.049Z,985.56
2019-06-15T01:16:24.043Z,985.52
2019-06-15T01:17:24.058Z,985.53
2019-06-15T01:18:24.011Z,985.53
2019-06-15T01:19:23.997Z,985.56
2019-06-15T01:20:23.984Z,985.57
2019-06-15T01:21:23.971Z,985.53
2019-06-15T01:22:23.958Z,985.54
2019-06-15T01:23:23.941Z,985.54
2019-06-15T01:24:23.929Z,985.56
2019-06-15T01:25:23.918Z,985.55
2019-06-15T01:26:23.899Z,985.54
2019-06-15T01:27:23.885Z,985.55
2019-06-15T01:28:23.887Z,985.58
2019-06-15T01:29:23.863Z,985.53
2019-06-15T01:30:23.858Z,985.54
2019-06-15T01:31:23.834Z,985.53
2019-06-15T01:32:23.822Z,985.49
2019-06-15T01:33:23.816Z,985.50
2019-06-15T01:34:23.791Z,985.53
2019-06-15T01:35:23.783Z,985.57
2019-06-15T01:36:23.763Z,985.60
2019-06-15T01:37:23.747Z,985.55
2019-06-15T01:38:23.732Z,985.62
2019-06-15T01:39:23.719Z,985.60
2019-06-15T01:40:23.708Z,985.57
2019-06-15T01:41:23.701Z,985.57
2019-06-15T01:42:23.679Z,985.55
2019-06-15T01:43:23.725Z,985.54
2019-06-15T01:44:23.657Z,985.46
2019-06-15T01:45:23.637Z,985.44
2019-06-15T01:46:23.634Z,985.44
2019-06-15T01:47:23.622Z,985.38
2019-06-15T01:48:23.598Z,985.40
2019-06-15T01:49:23.580Z,985.39
2019-06-15T01:50:23.589Z,985.40
2019-06-15T01:51:23.564Z,985.42
2019-06-15T01:52:23.542Z,985.39
2019-06-15T01:53:23.527Z,985.40
2019-06-15T01:54:23.517Z,985.40
2019-06-15T01:55:23.533Z,985.42
2019-06-15T01:56:23.485Z,985.38
2019-06-15T01:57:23.479Z,985.39
2019-06-15T01:58:23.462Z,985.37
2019-06-15T01:59:23.440Z,985.36
2019-06-15T02:00:23.435Z,985.30
2019-06-15T02:01:23.414Z,985.28
2019-06-15T02:02:23.402Z,985.24
2019-06-15T02:03:23.395Z,985.20
2019-06-15T02:04:23.375Z,985.22
2019-06-15T02:05:23.353Z,985.23
2019-06-15T02:06:23.352Z,985.26
2019-06-15T02:07:23.330Z,985.28
2019-06-15T02:08:23.310Z,985.28
2019-06-15T02:09:23.304Z,985.26
2019-06-15T02:10:23.315Z,985.24
2019-06-15T02:11:23.273Z,985.22
2019-06-15T02:12:23.261Z,985.19
2019-06-15T02:13:23.240Z,985.19
2019-06-15T02:14:23.231Z,985.16
2019-06-15T02:15:23.215Z,985.16
2019-06-15T02:16:23.206Z,985.14
2019-06-15T02:17:23.191Z,985.15
2019-06-15T02:18:23.174Z,985.14
2019-06-15T02:19:23.157Z,985.13
2019-06-15T02:20:23.170Z,985.14
2019-06-15T02:21:23.146Z,985.17
2019-06-15T02:22:23.119Z,985.17
2019-06-15T02:23:23.101Z,985.11
2019-06-15T02:24:23.088Z,985.13
2019-06-15T02:25:34.844Z,985.13
2019-06-15T02:26:23.084Z,985.12
2019-06-15T02:27:23.042Z,985.11
2019-06-15T02:28:23.031Z,985.12
2019-06-15T02:29:23.016Z,985.14
2019-06-15T02:30:23.004Z,985.14
2019-06-15T02:31:22.987Z,985.12
2019-06-15T02:32:22.975Z,985.11
2019-06-15T02:33:22.967Z,985.11
2019-06-15T02:34:22.947Z,985.10
2019-06-15T02:35:22.928Z,985.08
2019-06-15T02:36:22.919Z,985.04
2019-06-15T02:37:22.901Z,985.05
2019-06-15T02:38:22.882Z,985.06
2019-06-15T02:39:22.884Z,985.04
2019-06-15T02:40:22.864Z,985.05
2019-06-15T02:41:22.845Z,985.01
2019-06-15T02:42:22.823Z,985.00
2019-06-15T02:43:22.812Z,984.98
2019-06-15T02:44:22.803Z,984.92
2019-06-15T02:45:22.800Z,984.94
2019-06-15T02:46:26.294Z,984.99
2019-06-15T02:47:22.763Z,984.94
2019-06-15T02:48:22.755Z,984.95
2019-06-15T02:49:22.722Z,984.96
2019-06-15T02:50:22.712Z,984.95
2019-06-15T02:51:22.693Z,984.97
2019-06-15T02:52:22.683Z,984.94
2019-06-15T02:53:22.687Z,984.94
2019-06-15T02:54:22.678Z,984.92
2019-06-15T02:55:22.682Z,984.91
2019-06-15T02:56:22.627Z,984.92
2019-06-15T02:57:22.608Z,984.94
2019-06-15T02:58:22.589Z,984.94
2019-06-15T02:59:22.585Z,984.96
2019-06-15T03:00:22.565Z,984.96
2019-06-15T03:01:22.551Z,984.96
2019-06-15T03:02:22.539Z,984.98
2019-06-15T03:03:22.526Z,984.98
2019-06-15T03:04:22.511Z,984.96
2019-06-15T03:05:22.494Z,984.96
2019-06-15T03:06:22.481Z,984.99
2019-06-15T03:07:22.463Z,984.98
2019-06-15T03:08:22.456Z,984.97
2019-06-15T03:09:22.434Z,985.00
2019-06-15T03:10:22.420Z,984.99
2019-06-15T03:11:22.408Z,985.07
2019-06-15T03:12:22.394Z,985.05
2019-06-15T03:13:22.385Z,985.06
2019-06-15T03:14:22.361Z,985.06
2019-06-15T03:15:22.349Z,985.08
2019-06-15T03:16:22.340Z,985.03
2019-06-15T03:17:22.314Z,985.07
2019-06-15T03:18:22.302Z,985.06
2019-06-15T03:19:22.298Z,985.04
2019-06-15T03:20:22.273Z,985.06
2019-06-15T03:21:22.512Z,985.04
2019-06-15T03:22:23.099Z,985.03
2019-06-15T03:23:22.357Z,985.06
2019-06-15T03:24:22.218Z,985.08
2019-06-15T03:25:22.200Z,985.15
2019-06-15T03:26:22.185Z,985.19
2019-06-15T03:27:22.173Z,985.23
2019-06-15T03:28:22.165Z,985.27
2019-06-15T03:29:22.151Z,985.24
2019-06-15T03:30:22.127Z,985.27
2019-06-15T03:31:22.130Z,985.30
2019-06-15T03:32:22.104Z,985.30
2019-06-15T03:33:22.099Z,985.33
2019-06-15T03:34:22.073Z,985.32
2019-06-15T03:35:22.060Z,985.32
2019-06-15T03:36:22.045Z,985.35
2019-06-15T03:37:22.032Z,985.32
2019-06-15T03:38:22.012Z,985.31
2019-06-15T03:39:21.997Z,985.36
2019-06-15T03:40:21.982Z,985.39
2019-06-15T03:41:21.972Z,985.40
2019-06-15T03:42:21.976Z,985.42
2019-06-15T03:43:21.940Z,985.44
2019-06-15T03:44:21.930Z,985.46
2019-06-15T03:45:21.914Z,985.49
2019-06-15T03:46:21.903Z,985.50
2019-06-15T03:47:21.902Z,985.49
2019-06-15T03:48:21.869Z,985.50
2019-06-15T03:49:21.858Z,985.52
2019-06-15T03:50:21.844Z,985.60
2019-06-15T03:51:21.833Z,985.66
2019-06-15T03:52:21.829Z,985.66
2019-06-15T03:53:21.796Z,985.74
2019-06-15T03:54:21.782Z,985.70
2019-06-15T03:55:21.770Z,985.78
2019-06-15T03:56:22.399Z,985.79
2019-06-15T03:57:21.741Z,985.80
2019-06-15T03:58:21.721Z,985.80
2019-06-15T03:59:21.711Z,985.87
2019-06-15T04:00:21.703Z,985.89
2019-06-15T04:01:21.701Z,985.91
2019-06-15T04:02:21.666Z,986.00
2019-06-15T04:03:21.652Z,986.04
2019-06-15T04:04:21.644Z,986.05
2019-06-15T04:05:21.644Z,986.04
2019-06-15T04:06:21.608Z,986.11
2019-06-15T04:07:21.597Z,986.13
2019-06-15T04:08:21.584Z,986.18
2019-06-15T04:09:21.569Z,986.18
2019-06-15T04:10:21.552Z,986.17
2019-06-15T04:11:21.534Z,986.22
2019-06-15T04:12:21.524Z,986.25
2019-06-15T04:13:21.513Z,986.23
2019-06-15T04:14:21.500Z,986.29
2019-06-15T04:15:21.482Z,986.26
2019-06-15T04:16:21.468Z,986.26
2019-06-15T04:17:21.457Z,986.25
2019-06-15T04:18:21.431Z,986.26
2019-06-15T04:19:21.417Z,986.26
2019-06-15T04:20:21.412Z,986.25
2019-06-15T04:21:21.397Z,986.29
2019-06-15T04:22:21.383Z,986.29
2019-06-15T04:23:21.369Z,986.33
2019-06-15T04:24:21.357Z,986.37
2019-06-15T04:25:21.342Z,986.36
2019-06-15T04:26:32.877Z,986.38
2019-06-15T04:27:21.307Z,986.36
2019-06-15T04:28:21.307Z,986.35
2019-06-15T04:29:21.282Z,986.39
2019-06-15T04:30:21.276Z,986.42
2019-06-15T04:31:21.257Z,986.50
2019-06-15T04:32:21.244Z,986.65
2019-06-15T04:33:21.234Z,986.80
2019-06-15T04:34:21.211Z,986.87
2019-06-15T04:35:21.196Z,986.82
2019-06-15T04:36:21.186Z,986.86
2019-06-15T04:37:21.175Z,986.97
2019-06-15T04:38:21.155Z,987.04
2019-06-15T04:39:21.157Z,987.00
2019-06-15T04:40:21.122Z,987.03
2019-06-15T04:41:21.123Z,987.09
2019-06-15T04:42:21.107Z,987.06
2019-06-15T04:43:21.089Z,987.11
2019-06-15T04:44:21.072Z,987.00
2019-06-15T04:45:21.059Z,987.03
2019-06-15T04:46:21.042Z,987.01
2019-06-15T04:47:21.031Z,987.01
2019-06-15T04:48:21.013Z,987.03
2019-06-15T04:49:21.030Z,987.11
2019-06-15T04:50:20.989Z,987.07
2019-06-15T04:51:20.981Z,987.08
2019-06-15T04:52:20.963Z,987.04
2019-06-15T04:53:20.952Z,987.06
2019-06-15T04:54:20.938Z,987.09
2019-06-15T04:55:20.931Z,987.18
2019-06-15T04:56:20.914Z,987.29
2019-06-15T04:57:20.897Z,987.31
2019-06-15T04:58:20.880Z,987.35
2019-06-15T04:59:20.872Z,987.37
2019-06-15T05:00:20.855Z,987.31
2019-06-15T05:01:20.841Z,987.35
2019-06-15T05:02:20.836Z,987.31
2019-06-15T05:03:20.816Z,987.24
2019-06-15T05:04:20.802Z,987.32
2019-06-15T05:05:20.788Z,987.31
2019-06-15T05:06:20.765Z,987.33
2019-06-15T05:07:20.760Z,987.31
2019-06-15T05:08:20.745Z,987.28
2019-06-15T05:09:20.729Z,987.24
2019-06-15T05:10:20.715Z,987.21
2019-06-15T05:11:20.701Z,987.28
2019-06-15T05:12:20.707Z,987.22
2019-06-15T05:13:20.673Z,987.22
2019-06-15T05:14:20.670Z,987.24
2019-06-15T05:15:20.652Z,987.15
2019-06-15T05:16:20.630Z,987.22
2019-06-15T05:17:20.621Z,987.20
2019-06-15T05:18:20.613Z,987.18
2019-06-15T05:19:20.596Z,987.24
2019-06-15T05:20:20.589Z,987.23
2019-06-15T05:21:20.584Z,987.24
2019-06-15T05:22:20.563Z,987.26
2019-06-15T05:23:20.551Z,987.29
2019-06-15T05:24:20.557Z,987.29
2019-06-15T05:25:20.518Z,987.35
2019-06-15T05:26:20.494Z,987.36
2019-06-15T05:27:20.488Z,987.37
2019-06-15T05:28:20.479Z,987.40
2019-06-15T05:29:20.464Z,987.42
2019-06-15T05:30:20.453Z,987.43
2019-06-15T05:31:20.437Z,987.41
2019-06-15T05:32:20.439Z,987.43
2019-06-15T05:33:20.425Z,987.45
2019-06-15T05:34:20.399Z,987.48
2019-06-15T05:35:23.412Z,987.47
2019-06-15T05:36:20.376Z,987.53
2019-06-15T05:37:20.362Z,987.55
2019-06-15T05:38:20.349Z,987.61
2019-06-15T05:39:20.337Z,987.62
2019-06-15T05:40:20.322Z,987.70
2019-06-15T05:41:20.312Z,987.74
2019-06-15T05:42:20.298Z,987.78
2019-06-15T05:43:20.289Z,987.88
2019-06-15T05:44:20.269Z,988.05
2019-06-15T05:45:20.264Z,987.94
2019-06-15T05:46:20.249Z,988.00
2019-06-15T05:47:20.245Z,988.07
2019-06-15T05:48:20.314Z,988.09
2019-06-15T05:49:20.213Z,988.09
2019-06-15T05:50:20.210Z,988.09
2019-06-15T05:51:20.189Z,988.17
2019-06-15T05:52:20.184Z,988.24
2019-06-15T05:53:20.164Z,988.24
2019-06-15T05:54:20.160Z,988.19
2019-06-15T05:55:20.155Z,988.34
2019-06-15T05:56:20.135Z,988.26
2019-06-15T05:57:21.899Z,988.37
2019-06-15T05:58:20.120Z,988.34
2019-06-15T05:59:20.101Z,988.31
2019-06-15T06:00:20.099Z,988.28
2019-06-15T06:01:20.077Z,988.41
2019-06-15T06:02:22.703Z,988.37
2019-06-15T06:03:20.053Z,988.33
2019-06-15T06:04:20.058Z,988.31
2019-06-15T06:05:20.031Z,988.38
2019-06-15T06:06:20.025Z,988.47
2019-06-15T06:07:20.016Z,988.48
2019-06-15T06:08:19.992Z,988.53
2019-06-15T06:09:19.983Z,988.52
2019-06-15T06:10:19.970Z,988.57
2019-06-15T06:11:19.956Z,988.61
2019-06-15T06:12:19.976Z,988.62
2019-06-15T06:13:19.933Z,988.64
2019-06-15T06:14:19.924Z,988.68
2019-06-15T06:15:19.918Z,988.70
2019-06-15T06:16:19.901Z,988.72
2019-06-15T06:17:19.885Z,988.69
2019-06-15T06:18:19.889Z,988.74
2019-06-15T06:19:19.862Z,988.75
2019-06-15T06:20:19.849Z,988.71
2019-06-15T06:21:19.839Z,988.76
2019-06-15T06:22:19.823Z,988.81
2019-06-15T06:23:19.813Z,988.80
2019-06-15T06:24:19.801Z,988.85
2019-06-15T06:25:19.787Z,988.83
2019-06-15T06:26:19.773Z,988.85
2019-06-15T06:27:19.761Z,988.87
2019-06-15T06:28:19.772Z,988.83
2019-06-15T06:29:19.742Z,988.89
2019-06-15T06:30:19.740Z,988.85
2019-06-15T06:31:19.710Z,988.86
2019-06-15T06:32:19.720Z,988.86
2019-06-15T06:33:19.687Z,988.87
2019-06-15T06:34:19.673Z,988.86
2019-06-15T06:35:19.667Z,988.78
2019-06-15T06:36:19.659Z,988.79
2019-06-15T06:37:19.645Z,988.80
2019-06-15T06:38:19.639Z,988.79
2019-06-15T06:39:19.615Z,988.74
2019-06-15T06:40:19.629Z,988.73
2019-06-15T06:41:19.585Z,988.76
2019-06-15T06:42:19.574Z,988.74
2019-06-15T06:43:19.579Z,988.67
2019-06-15T06:44:19.558Z,988.70
2019-06-15T06:45:19.545Z,988.74
2019-06-15T06:46:19.531Z,988.80
2019-06-15T06:47:19.517Z,988.83
2019-06-15T06:48:19.503Z,988.83
2019-06-15T06:49:19.497Z,988.90
2019-06-15T06:50:19.484Z,988.95
2019-06-15T06:51:19.475Z,988.96
2019-06-15T06:52:19.470Z,989.03
2019-06-15T06:53:19.445Z,989.05
2019-06-15T06:54:19.435Z,989.10
2019-06-15T06:55:19.467Z,989.16
2019-06-15T06:56:19.412Z,989.12
2019-06-15T06:57:19.398Z,989.20
2019-06-15T06:58:19.387Z,989.27
2019-06-15T06:59:19.377Z,989.35
2019-06-15T07:00:19.372Z,989.38
2019-06-15T07:01:19.357Z,989.35
2019-06-15T07:02:19.356Z,989.37
2019-06-15T07:03:19.338Z,989.42
2019-06-15T07:04:19.323Z,989.37
2019-06-15T07:05:19.313Z,989.45
2019-06-15T07:06:19.298Z,989.45
2019-06-15T07:07:19.294Z,989.46
2019-06-15T07:08:19.282Z,989.41
2019-06-15T07:09:19.271Z,989.43
2019-06-15T07:10:19.261Z,989.49
2019-06-15T07:11:19.252Z,989.46
2019-06-15T07:12:19.250Z,989.57
2019-06-15T07:13:19.233Z,989.59
2019-06-15T07:14:19.222Z,989.63
2019-06-15T07:15:19.221Z,989.64
2019-06-15T07:16:19.213Z,989.59
2019-06-15T07:17:19.201Z,989.63
2019-06-15T07:18:19.232Z,989.65
2019-06-15T07:19:19.176Z,989.65
2019-06-15T07:20:19.180Z,989.62
2019-06-15T07:21:19.158Z,989.67
2019-06-15T07:22:19.148Z,989.67
2019-06-15T07:23:19.142Z,989.72
2019-06-15T07:24:19.133Z,989.68
2019-06-15T07:25:19.119Z,989.70
2019-06-15T07:26:19.114Z,989.68
2019-06-15T07:27:19.103Z,989.70
2019-06-15T07:28:19.095Z,989.67
2019-06-15T07:29:19.087Z,989.74
2019-06-15T07:30:19.082Z,989.74
2019-06-15T07:31:19.068Z,989.67
2019-06-15T07:32:19.056Z,989.73
2019-06-15T07:33:19.048Z,989.70
2019-06-15T07:34:19.040Z,989.68
2019-06-15T07:35:19.031Z,989.70
2019-06-15T07:36:19.020Z,989.71
2019-06-15T07:37:19.015Z,989.75
2019-06-15T07:38:19.008Z,989.71
2019-06-15T07:39:18.996Z,989.77
2019-06-15T07:40:18.986Z,989.81
2019-06-15T07:41:18.974Z,989.81
2019-06-15T07:42:18.968Z,989.87
2019-06-15T07:43:18.958Z,989.86
2019-06-15T07:44:18.947Z,989.90
2019-06-15T07:45:18.940Z,989.95
2019-06-15T07:46:18.926Z,989.88
2019-06-15T07:47:18.924Z,990.00
2019-06-15T07:48:18.911Z,989.99
2019-06-15T07:49:18.900Z,990.04
2019-06-15T07:50:18.901Z,990.05
2019-06-15T07:51:18.883Z,990.06
2019-06-15T07:52:18.875Z,990.07
2019-06-15T07:53:18.864Z,990.10
2019-06-15T07:54:18.869Z,990.14
2019-06-15T07:55:18.843Z,990.18
2019-06-15T07:56:18.844Z,990.20
2019-06-15T07:57:18.821Z,990.25
2019-06-15T07:58:24.488Z,990.21
2019-06-15T07:59:18.809Z,990.23
2019-06-15T08:00:18.797Z,990.27
2019-06-15T08:01:18.785Z,990.23
2019-06-15T08:02:18.808Z,990.28
2019-06-15T08:03:18.789Z,990.30
2019-06-15T08:04:18.764Z,990.32
2019-06-15T08:05:18.799Z,990.32
2019-06-15T08:06:18.743Z,990.36
2019-06-15T08:07:18.886Z,990.38
2019-06-15T08:08:18.727Z,990.42
2019-06-15T08:09:18.715Z,990.43
2019-06-15T08:10:18.704Z,990.46
2019-06-15T08:11:18.696Z,990.48
2019-06-15T08:12:18.684Z,990.55
2019-06-15T08:13:18.679Z,990.49
2019-06-15T08:14:18.671Z,990.54
2019-06-15T08:15:18.658Z,990.50
2019-06-15T08:16:18.643Z,990.53
2019-06-15T08:17:18.633Z,990.57
2019-06-15T08:18:18.620Z,990.52
2019-06-15T08:19:18.616Z,990.57
2019-06-15T08:20:18.605Z,990.56
2019-06-15T08:21:18.609Z,990.55
2019-06-15T08:22:18.589Z,990.56
2019-06-15T08:23:18.575Z,990.55
2019-06-15T08:24:18.569Z,990.52
2019-06-15T08:25:18.555Z,990.50
2019-06-15T08:26:18.546Z,990.54
2019-06-15T08:27:18.555Z,990.54
2019-06-15T08:28:18.529Z,990.55
2019-06-15T08:29:18.554Z,990.55
2019-06-15T08:30:18.516Z,990.62
2019-06-15T08:31:18.503Z,990.59
2019-06-15T08:32:18.492Z,990.55
2019-06-15T08:33:18.484Z,990.60
2019-06-15T08:34:18.468Z,990.62
2019-06-15T08:35:18.463Z,990.65
2019-06-15T08:36:18.457Z,990.68
2019-06-15T08:37:18.452Z,990.65
2019-06-15T08:38:18.438Z,990.71
2019-06-15T08:39:18.429Z,990.68
2019-06-15T08:40:18.417Z,990.67
2019-06-15T08:41:18.407Z,990.70
2019-06-15T08:42:18.400Z,990.78
2019-06-15T08:43:18.389Z,990.70
2019-06-15T08:44:18.407Z,990.72
2019-06-15T08:45:18.378Z,990.74
2019-06-15T08:46:18.403Z,990.81
2019-06-15T08:47:18.357Z,990.83
2019-06-15T08:48:18.337Z,990.89
2019-06-15T08:49:18.322Z,990.90
2019-06-15T08:50:18.317Z,990.94
2019-06-15T08:51:18.309Z,990.96
2019-06-15T08:52:18.338Z,990.99
2019-06-15T08:53:18.295Z,991.01
2019-06-15T08:54:18.276Z,991.06
2019-06-15T08:55:18.302Z,991.08
2019-06-15T08:56:18.255Z,991.09
2019-06-15T08:57:18.245Z,991.25
2019-06-15T08:58:18.316Z,991.20
2019-06-15T08:59:18.286Z,991.22
2019-06-15T09:00:18.307Z,991.22
2019-06-15T09:01:18.211Z,991.24
2019-06-15T09:02:18.195Z,991.27
2019-06-15T09:03:18.507Z,991.25
2019-06-15T09:04:18.173Z,991.23
2019-06-15T09:05:18.163Z,991.24
2019-06-15T09:06:18.156Z,991.24
2019-06-15T09:07:18.143Z,991.28
2019-06-15T09:08:18.133Z,991.25
2019-06-15T09:09:18.119Z,991.24
2019-06-15T09:10:18.110Z,991.18
2019-06-15T09:11:18.107Z,991.21
2019-06-15T09:12:18.095Z,991.16
2019-06-15T09:13:18.081Z,991.19
2019-06-15T09:14:18.073Z,991.22
2019-06-15T09:15:18.059Z,991.22
2019-06-15T09:16:18.073Z,991.23
2019-06-15T09:17:18.045Z,991.25
2019-06-15T09:18:18.119Z,991.22
2019-06-15T09:19:18.020Z,991.26
2019-06-15T09:20:18.020Z,991.22
2019-06-15T09:21:18.000Z,991.25
2019-06-15T09:22:17.993Z,991.31
2019-06-15T09:23:17.991Z,991.29
2019-06-15T09:24:17.972Z,991.33
2019-06-15T09:25:17.967Z,991.42
2019-06-15T09:26:17.954Z,991.45
2019-06-15T09:27:17.940Z,991.40
2019-06-15T09:28:17.932Z,991.38
2019-06-15T09:29:17.925Z,991.39
2019-06-15T09:30:17.918Z,991.38
2019-06-15T09:31:17.910Z,991.41
2019-06-15T09:32:17.905Z,991.44
2019-06-15T09:33:17.885Z,991.41
2019-06-15T09:34:19.280Z,991.36
2019-06-15T09:35:17.876Z,991.39
2019-06-15T09:36:17.866Z,991.38
2019-06-15T09:37:17.858Z,991.36
2019-06-15T09:38:17.854Z,991.41
2019-06-15T09:39:17.846Z,991.42
2019-06-15T09:40:17.832Z,991.44
2019-06-15T09:41:17.821Z,991.45
2019-06-15T09:42:17.846Z,991.46
2019-06-15T09:43:17.812Z,991.46
2019-06-15T09:44:17.796Z,991.46
2019-06-15T09:45:17.787Z,991.47
2019-06-15T09:46:17.787Z,991.50
2019-06-15T09:47:17.777Z,991.49
2019-06-15T09:48:17.768Z,991.52
2019-06-15T09:49:17.764Z,991.49
2019-06-15T09:50:17.752Z,991.50
2019-06-15T09:51:17.742Z,991.52
2019-06-15T09:52:17.731Z,991.56
2019-06-15T09:53:17.725Z,991.56
2019-06-15T09:54:17.716Z,991.60
2019-06-15T09:55:17.745Z,991.57
2019-06-15T09:56:17.696Z,991.62
2019-06-15T09:57:17.689Z,991.51
2019-06-15T09:58:17.679Z,991.60
2019-06-15T09:59:26.122Z,991.61
2019-06-15T10:00:17.662Z,991.63
2019-06-15T10:01:17.651Z,991.65
2019-06-15T10:02:17.638Z,991.64
2019-06-15T10:03:17.638Z,991.67
2019-06-15T10:04:17.625Z,991.65
2019-06-15T10:05:17.618Z,991.62
2019-06-15T10:06:17.616Z,991.67
2019-06-15T10:07:17.600Z,991.66
2019-06-15T10:08:17.591Z,991.64
2019-06-15T10:09:17.586Z,991.67
2019-06-15T10:10:17.577Z,991.71
2019-06-15T10:11:17.559Z,991.72
2019-06-15T10:12:17.550Z,991.78
2019-06-15T10:13:17.547Z,991.74
2019-06-15T10:14:17.536Z,991.72
2019-06-15T10:15:17.528Z,991.73
2019-06-15T10:16:17.539Z,991.76
2019-06-15T10:17:17.511Z,991.71
2019-06-15T10:18:17.501Z,991.74
2019-06-15T10:19:17.494Z,991.78
2019-06-15T10:20:17.484Z,991.77
2019-06-15T10:21:17.468Z,991.82
2019-06-15T10:22:17.467Z,991.84
2019-06-15T10:23:17.484Z,991.87
2019-06-15T10:24:17.440Z,991.91
2019-06-15T10:25:17.439Z,991.91
2019-06-15T10:26:17.429Z,991.89
2019-06-15T10:27:17.415Z,991.91
2019-06-15T10:28:17.421Z,991.90
2019-06-15T10:29:17.399Z,991.93
2019-06-15T10:30:17.390Z,991.94
2019-06-15T10:31:17.383Z,991.92
2019-06-15T10:32:17.374Z,992.00
2019-06-15T10:33:17.364Z,992.00
2019-06-15T10:34:17.356Z,992.03
2019-06-15T10:35:17.346Z,991.91
2019-06-15T10:36:17.347Z,991.97
2019-06-15T10:37:17.326Z,992.07
2019-06-15T10:38:17.319Z,991.92
2019-06-15T10:39:17.310Z,991.98
2019-06-15T10:40:17.306Z,991.99
2019-06-15T10:41:17.300Z,991.97
2019-06-15T10:42:17.289Z,991.95
2019-06-15T10:43:17.291Z,991.94
2019-06-15T10:44:17.273Z,991.98
2019-06-15T10:45:17.288Z,991.96
2019-06-15T10:46:17.264Z,991.97
2019-06-15T10:47:17.397Z,992.03
2019-06-15T10:48:17.248Z,992.02
2019-06-15T10:49:17.240Z,992.12
2019-06-15T10:50:17.235Z,992.13
2019-06-15T10:51:17.228Z,992.16
2019-06-15T10:52:17.234Z,992.17
2019-06-15T10:53:17.213Z,992.06
2019-06-15T10:54:17.211Z,992.15
2019-06-15T10:55:17.203Z,992.10
2019-06-15T10:56:17.198Z,992.12
2019-06-15T10:57:17.190Z,992.09
2019-06-15T10:58:17.186Z,992.10
2019-06-15T10:59:17.178Z,992.17
2019-06-15T11:00:17.178Z,992.17
2019-06-15T11:01:17.167Z,992.20
2019-06-15T11:02:17.163Z,992.19
2019-06-15T11:03:17.158Z,992.15
2019-06-15T11:04:17.155Z,992.21
2019-06-15T11:05:17.148Z,992.18
2019-06-15T11:06:17.136Z,992.16
2019-06-15T11:07:17.150Z,992.18
2019-06-15T11:08:17.135Z,992.11
2019-06-15T11:09:17.125Z,992.20
2019-06-15T11:10:17.117Z,992.17
2019-06-15T11:11:17.112Z,992.18
2019-06-15T11:12:17.104Z,992.16
2019-06-15T11:13:17.101Z,992.21
2019-06-15T11:14:17.088Z,992.19
2019-06-15T11:15:17.103Z,992.18
2019-06-15T11:16:17.081Z,992.15
2019-06-15T11:17:17.087Z,992.20
2019-06-15T11:18:17.071Z,992.17
2019-06-15T11:19:17.066Z,992.21
2019-06-15T11:20:17.058Z,992.24
2019-06-15T11:21:17.079Z,992.19
2019-06-15T11:22:17.041Z,992.22
2019-06-15T11:23:17.038Z,992.21
2019-06-15T11:24:17.034Z,992.24
2019-06-15T11:25:17.027Z,992.24
2019-06-15T11:26:17.027Z,992.17
2019-06-15T11:27:17.025Z,992.23
2019-06-15T11:28:17.008Z,992.18
2019-06-15T11:29:17.003Z,992.20
2019-06-15T11:30:17.014Z,992.18
2019-06-15T11:31:16.994Z,992.24
2019-06-15T11:32:16.998Z,992.21
2019-06-15T11:33:16.984Z,992.18
2019-06-15T11:34:16.981Z,992.16
2019-06-15T11:35:16.975Z,992.21
2019-06-15T11:36:16.978Z,992.21
2019-06-15T11:37:16.969Z,992.21
2019-06-15T11:38:16.962Z,992.21
2019-06-15T11:39:16.959Z,992.21
2019-06-15T11:40:16.969Z,992.19
2019-06-15T11:41:16.953Z,992.24
2019-06-15T11:42:16.948Z,992.13
2019-06-15T11:43:16.943Z,992.20
2019-06-15T11:44:16.944Z,992.18
2019-06-15T11:45:16.960Z,992.19
2019-06-15T11:46:16.935Z,992.18
2019-06-15T11:47:16.933Z,992.16
2019-06-15T11:48:16.928Z,992.23
2019-06-15T11:49:16.929Z,992.18
2019-06-15T11:50:16.927Z,992.13
2019-06-15T11:51:16.912Z,992.17
2019-06-15T11:52:16.912Z,992.15
2019-06-15T11:53:16.918Z,992.15
2019-06-15T11:54:16.910Z,992.12
2019-06-15T11:55:19.837Z,992.19
2019-06-15T11:56:16.906Z,992.13
2019-06-15T11:57:16.898Z,992.25
2019-06-15T11:58:16.899Z,992.20
2019-06-15T11:59:16.892Z,992.21
2019-06-15T12:00:30.407Z,992.24
2019-06-15T12:01:18.904Z,992.17
2019-06-15T12:02:16.882Z,992.22
2019-06-15T12:03:16.875Z,992.18
2019-06-15T12:04:16.879Z,992.24
2019-06-15T12:05:16.871Z,992.33
2019-06-15T12:06:16.868Z,992.26
2019-06-15T12:07:16.859Z,992.30
2019-06-15T12:08:16.860Z,992.33
2019-06-15T12:09:16.851Z,992.26
2019-06-15T12:10:16.852Z,992.30
2019-06-15T12:11:16.853Z,992.29
2019-06-15T12:12:16.837Z,992.31
2019-06-15T12:13:16.833Z,992.30
2019-06-15T12:14:16.824Z,992.24
2019-06-15T12:15:16.823Z,992.26
2019-06-15T12:16:16.816Z,992.31
2019-06-15T12:17:16.811Z,992.33
2019-06-15T12:18:16.814Z,992.29
2019-06-15T12:19:16.803Z,992.27
2019-06-15T12:20:16.849Z,992.26
2019-06-15T12:21:16.804Z,992.22
2019-06-15T12:22:16.791Z,992.24
2019-06-15T12:23:16.786Z,992.30
2019-06-15T12:24:16.780Z,992.27
2019-06-15T12:25:16.825Z,992.16
2019-06-15T12:26:16.774Z,992.24
2019-06-15T12:27:16.772Z,992.18
2019-06-15T12:28:16.767Z,992.23